sensor_id;sensor_type;location;lat;lon;timestamp;pressure;altitude;pressure_sealevel;temperature;humidity
58739;BME280;44512;53.046;18.604;2022-09-09T00:08:07;101306.52;;;18.29;52.18
58739;BME280;44512;53.046;18.604;2022-09-09T00:39:34;101305.77;;;17.98;53.93
58739;BME280;44512;53.046;18.604;2022-09-09T00:50:10;101299.68;;;17.84;54.40
58739;BME280;44512;53.046;18.604;2022-09-09T01:00:29;101297.09;;;17.59;55.31
58739;BME280;44512;53.046;18.604;2022-09-09T01:10:56;101304.87;;;17.44;55.46
58739;BME280;44512;53.046;18.604;2022-09-09T01:42:20;101306.80;;;17.25;56.33
58739;BME280;44512;53.046;18.604;2022-09-09T01:52:54;101326.05;;;17.18;56.63
58739;BME280;44512;53.046;18.604;2022-09-09T02:03:27;101311.15;;;17.14;56.71
58739;BME280;44512;53.046;18.604;2022-09-09T02:13:51;101310.50;;;17.01;57.13
58739;BME280;44512;53.046;18.604;2022-09-09T02:24:15;101305.61;;;16.84;57.72
58739;BME280;44512;53.046;18.604;2022-09-09T02:34:49;101299.24;;;16.72;58.29
58739;BME280;44512;53.046;18.604;2022-09-09T02:45:12;101289.87;;;16.61;58.96
58739;BME280;44512;53.046;18.604;2022-09-09T02:55:41;101302.22;;;16.46;59.78
58739;BME280;44512;53.046;18.604;2022-09-09T03:06:07;101303.34;;;16.38;60.02
58739;BME280;44512;53.046;18.604;2022-09-09T03:16:35;101304.34;;;16.44;60.05
58739;BME280;44512;53.046;18.604;2022-09-09T03:27:04;101303.89;;;16.47;60.16
58739;BME280;44512;53.046;18.604;2022-09-09T03:37:32;101316.13;;;16.44;60.32
58739;BME280;44512;53.046;18.604;2022-09-09T03:48:00;101312.75;;;16.42;60.51
58739;BME280;44512;53.046;18.604;2022-09-09T03:58:29;101315.80;;;16.34;60.85
58739;BME280;44512;53.046;18.604;2022-09-09T04:08:58;101318.96;;;16.31;61.19
58739;BME280;44512;53.046;18.604;2022-09-09T04:19:25;101316.66;;;16.28;61.35
58739;BME280;44512;53.046;18.604;2022-09-09T04:29:54;101311.01;;;16.29;61.41
58739;BME280;44512;53.046;18.604;2022-09-09T04:40:22;101325.93;;;16.27;61.74
58739;BME280;44512;53.046;18.604;2022-09-09T04:51:00;101320.96;;;16.17;62.18
58739;BME280;44512;53.046;18.604;2022-09-09T05:01:21;101320.96;;;16.17;62.41
58739;BME280;44512;53.046;18.604;2022-09-09T05:11:47;101326.42;;;16.17;62.54
58739;BME280;44512;53.046;18.604;2022-09-09T05:22:22;101345.77;;;16.15;62.77
58739;BME280;44512;53.046;18.604;2022-09-09T05:32:44;101341.61;;;16.13;62.90
58739;BME280;44512;53.046;18.604;2022-09-09T05:43:12;101344.10;;;16.14;63.00
58739;BME280;44512;53.046;18.604;2022-09-09T05:53:41;101352.07;;;16.16;63.15
58739;BME280;44512;53.046;18.604;2022-09-09T06:04:09;101348.94;;;16.12;63.53
58739;BME280;44512;53.046;18.604;2022-09-09T06:14:38;101350.00;;;16.11;63.90
58739;BME280;44512;53.046;18.604;2022-09-09T06:25:07;101360.32;;;16.09;64.22
58739;BME280;44512;53.046;18.604;2022-09-09T06:35:34;101372.91;;;16.10;64.48
58739;BME280;44512;53.046;18.604;2022-09-09T06:46:05;101369.12;;;16.11;64.74
58739;BME280;44512;53.046;18.604;2022-09-09T06:56:33;101390.36;;;16.09;65.15
58739;BME280;44512;53.046;18.604;2022-09-09T07:06:59;101388.23;;;16.11;65.25
58739;BME280;44512;53.046;18.604;2022-09-09T07:17:28;101391.60;;;16.13;65.61
58739;BME280;44512;53.046;18.604;2022-09-09T07:38:24;101406.74;;;16.09;66.48
58739;BME280;44512;53.046;18.604;2022-09-09T07:48:54;101417.20;;;16.12;66.75
58739;BME280;44512;53.046;18.604;2022-09-09T07:59:21;101423.91;;;16.17;66.94
58739;BME280;44512;53.046;18.604;2022-09-09T08:09:50;101433.11;;;16.22;67.12
58739;BME280;44512;53.046;18.604;2022-09-09T08:20:18;101438.98;;;16.26;67.40
58739;BME280;44512;53.046;18.604;2022-09-09T08:30:47;101444.88;;;16.23;67.67
58739;BME280;44512;53.046;18.604;2022-09-09T08:51:43;101459.06;;;16.38;68.24
58739;BME280;44512;53.046;18.604;2022-09-09T09:02:18;101472.89;;;16.43;68.43
58739;BME280;44512;53.046;18.604;2022-09-09T09:12:43;101464.87;;;16.48;68.59
58739;BME280;44512;53.046;18.604;2022-09-09T09:23:15;101478.71;;;16.53;68.62
58739;BME280;44512;53.046;18.604;2022-09-09T09:33:47;101480.34;;;16.61;68.67
58739;BME280;44512;53.046;18.604;2022-09-09T09:54:39;101500.92;;;16.63;69.15
58739;BME280;44512;53.046;18.604;2022-09-09T10:36:27;101492.42;;;16.78;69.77
58739;BME280;44512;53.046;18.604;2022-09-09T11:12:17;101528.87;;;16.97;70.37
58739;BME280;44512;53.046;18.604;2022-09-09T11:33:29;101543.13;;;17.06;70.70
58739;BME280;44512;53.046;18.604;2022-09-09T12:13:37;101539.79;;;17.47;71.15
58739;BME280;44512;53.046;18.604;2022-09-09T12:23:47;101542.14;;;17.62;71.19
58739;BME280;44512;53.046;18.604;2022-09-09T12:33:52;101534.41;;;17.77;70.84
58739;BME280;44512;53.046;18.604;2022-09-09T12:44:17;101527.95;;;17.90;70.78
58739;BME280;44512;53.046;18.604;2022-09-09T12:54:13;101514.08;;;18.03;70.03
58739;BME280;44512;53.046;18.604;2022-09-09T13:04:21;101511.17;;;18.16;69.86
58739;BME280;44512;53.046;18.604;2022-09-09T13:14:31;101512.18;;;18.34;69.01
58739;BME280;44512;53.046;18.604;2022-09-09T13:24:37;101513.80;;;18.53;68.47
58739;BME280;44512;53.046;18.604;2022-09-09T13:44:51;101496.13;;;18.79;68.06
58739;BME280;44512;53.046;18.604;2022-09-09T13:54:54;101487.32;;;19.00;67.74
58739;BME280;44512;53.046;18.604;2022-09-09T14:04:58;101499.14;;;19.24;67.39
58739;BME280;44512;53.046;18.604;2022-09-09T14:14:59;101515.46;;;19.43;66.51
58739;BME280;44512;53.046;18.604;2022-09-09T14:25:01;101512.23;;;19.58;65.53
58739;BME280;44512;53.046;18.604;2022-09-09T14:45:13;101507.35;;;19.71;64.16
58739;BME280;44512;53.046;18.604;2022-09-09T14:55:15;101493.83;;;19.82;63.36
58739;BME280;44512;53.046;18.604;2022-09-09T15:05:17;101495.45;;;19.94;62.47
58739;BME280;44512;53.046;18.604;2022-09-09T15:15:18;101501.98;;;20.05;61.87
58739;BME280;44512;53.046;18.604;2022-09-09T15:25:19;101506.43;;;20.06;61.27
58739;BME280;44512;53.046;18.604;2022-09-09T15:35:22;101509.07;;;20.01;61.17
58739;BME280;44512;53.046;18.604;2022-09-09T15:45:46;101522.81;;;20.01;61.33
58739;BME280;44512;53.046;18.604;2022-09-09T15:56:13;101514.78;;;19.99;60.79
58739;BME280;44512;53.046;18.604;2022-09-09T16:06:41;101533.23;;;19.87;60.62
58739;BME280;44512;53.046;18.604;2022-09-09T16:17:09;101515.01;;;19.69;60.61
58739;BME280;44512;53.046;18.604;2022-09-09T16:27:38;101523.81;;;19.48;60.93
58739;BME280;44512;53.046;18.604;2022-09-09T16:38:06;101504.62;;;19.36;61.08
58739;BME280;44512;53.046;18.604;2022-09-09T16:48:35;101524.80;;;19.18;61.39
58739;BME280;44512;53.046;18.604;2022-09-09T16:59:05;101540.53;;;18.99;61.71
58739;BME280;44512;53.046;18.604;2022-09-09T17:09:31;101545.05;;;18.94;61.97
58739;BME280;44512;53.046;18.604;2022-09-09T17:20:00;101550.73;;;18.81;62.27
58739;BME280;44512;53.046;18.604;2022-09-09T17:30:28;101546.57;;;18.78;62.41
58739;BME280;44512;53.046;18.604;2022-09-09T17:51:27;101551.86;;;18.61;63.08
58739;BME280;44512;53.046;18.604;2022-09-09T18:01:53;101552.77;;;18.55;63.33
58739;BME280;44512;53.046;18.604;2022-09-09T18:12:22;101555.48;;;18.43;63.66
58739;BME280;44512;53.046;18.604;2022-09-09T18:22:50;101572.73;;;18.32;64.06
58739;BME280;44512;53.046;18.604;2022-09-09T18:33:18;101580.74;;;18.15;64.51
58739;BME280;44512;53.046;18.604;2022-09-09T18:43:48;101578.30;;;18.07;64.64
58739;BME280;44512;53.046;18.604;2022-09-09T18:54:24;101590.62;;;17.98;64.88
58739;BME280;44512;53.046;18.604;2022-09-09T19:04:44;101583.86;;;17.82;65.30
58739;BME280;44512;53.046;18.604;2022-09-09T19:15:12;101586.68;;;17.76;65.56
58739;BME280;44512;53.046;18.604;2022-09-09T19:25:40;101576.60;;;17.69;65.67
58739;BME280;44512;53.046;18.604;2022-09-09T19:36:10;101592.20;;;17.69;65.76
58739;BME280;44512;53.046;18.604;2022-09-09T19:46:39;101602.36;;;17.62;66.04
58739;BME280;44512;53.046;18.604;2022-09-09T19:57:06;101600.52;;;17.56;66.28
58739;BME280;44512;53.046;18.604;2022-09-09T20:07:34;101596.52;;;17.58;66.35
58739;BME280;44512;53.046;18.604;2022-09-09T20:18:03;101600.60;;;17.49;66.40
58739;BME280;44512;53.046;18.604;2022-09-09T20:28:33;101605.91;;;17.44;66.88
58739;BME280;44512;53.046;18.604;2022-09-09T20:49:28;101597.10;;;17.42;67.15
58739;BME280;44512;53.046;18.604;2022-09-09T20:59:56;101613.95;;;17.39;67.39
58739;BME280;44512;53.046;18.604;2022-09-09T21:10:25;101616.09;;;17.37;67.58
58739;BME280;44512;53.046;18.604;2022-09-09T21:20:54;101617.30;;;17.41;67.58
58739;BME280;44512;53.046;18.604;2022-09-09T21:31:22;101609.41;;;17.51;67.40
58739;BME280;44512;53.046;18.604;2022-09-09T21:41:50;101616.72;;;17.57;67.23
58739;BME280;44512;53.046;18.604;2022-09-09T21:52:18;101616.68;;;17.64;67.11
58739;BME280;44512;53.046;18.604;2022-09-09T22:02:46;101600.46;;;17.62;67.01
58739;BME280;44512;53.046;18.604;2022-09-09T22:13:16;101608.50;;;17.57;67.04
58739;BME280;44512;53.046;18.604;2022-09-09T22:23:48;101592.71;;;17.59;67.08
58739;BME280;44512;53.046;18.604;2022-09-09T22:34:12;101593.78;;;17.58;67.02
58739;BME280;44512;53.046;18.604;2022-09-09T22:44:40;101573.98;;;17.56;67.01
58739;BME280;44512;53.046;18.604;2022-09-09T22:55:09;101579.94;;;17.53;67.01
58739;BME280;44512;53.046;18.604;2022-09-09T23:05:37;101572.99;;;17.51;67.12
58739;BME280;44512;53.046;18.604;2022-09-09T23:16:13;101561.05;;;17.45;67.27
58739;BME280;44512;53.046;18.604;2022-09-09T23:26:34;101565.20;;;17.29;67.72
58739;BME280;44512;53.046;18.604;2022-09-09T23:37:02;101556.83;;;17.24;68.02
58739;BME280;44512;53.046;18.604;2022-09-09T23:47:31;101561.73;;;17.15;68.26
58739;BME280;44512;53.046;18.604;2022-09-09T23:57:59;101550.96;;;17.21;68.27
